createdAt,value
2018-12-24T00:01:39.826Z,9.57
2018-12-24T00:04:10.634Z,8.90
2018-12-24T00:06:41.356Z,7.97
2018-12-24T00:09:12.118Z,8.67
2018-12-24T00:11:42.871Z,9.10
2018-12-24T00:14:13.630Z,8.30
2018-12-24T00:16:44.486Z,9.23
2018-12-24T00:19:15.291Z,9.07
2018-12-24T00:21:46.092Z,9.10
2018-12-24T00:24:16.883Z,8.90
2018-12-24T00:26:47.679Z,9.53
2018-12-24T00:29:18.470Z,8.83
2018-12-24T00:31:49.268Z,8.90
2018-12-24T00:34:20.027Z,8.17
2018-12-24T00:36:50.789Z,8.63
2018-12-24T00:39:21.562Z,8.33
2018-12-24T00:41:52.343Z,8.77
2018-12-24T00:44:23.098Z,8.50
2018-12-24T00:46:53.885Z,8.63
2018-12-24T00:49:24.691Z,9.23
2018-12-24T00:51:55.450Z,8.07
2018-12-24T00:54:26.202Z,7.73
2018-12-24T00:56:56.960Z,7.90
2018-12-24T00:59:27.731Z,7.47
2018-12-24T01:01:58.483Z,7.60
2018-12-24T01:04:29.202Z,8.37
2018-12-24T01:07:00.050Z,7.50
2018-12-24T01:09:30.805Z,7.30
2018-12-24T01:12:01.516Z,7.47
2018-12-24T01:14:32.285Z,7.80
2018-12-24T01:17:03.083Z,7.47
2018-12-24T01:19:33.861Z,8.13
2018-12-24T01:22:04.656Z,7.50
2018-12-24T01:24:35.411Z,7.57
2018-12-24T01:27:06.198Z,7.40
2018-12-24T01:29:37.023Z,7.80
2018-12-24T01:32:07.775Z,8.10
2018-12-24T01:34:38.596Z,8.07
2018-12-24T01:37:09.459Z,7.57
2018-12-24T01:39:40.309Z,7.20
2018-12-24T01:42:11.058Z,8.40
2018-12-24T01:44:41.818Z,7.63
2018-12-24T01:47:12.604Z,7.67
2018-12-24T01:49:43.361Z,7.73
2018-12-24T01:52:14.157Z,7.57
2018-12-24T01:54:44.910Z,8.00
2018-12-24T01:57:15.736Z,7.50
2018-12-24T01:59:46.533Z,7.87
2018-12-24T02:02:17.259Z,7.20
2018-12-24T02:04:48.030Z,7.87
2018-12-24T02:07:18.793Z,8.67
2018-12-24T02:09:49.503Z,8.17
2018-12-24T02:12:21.954Z,8.10
2018-12-24T02:14:52.705Z,7.83
2018-12-24T02:17:23.492Z,8.23
2018-12-24T02:19:54.323Z,7.73
2018-12-24T02:22:25.074Z,8.37
2018-12-24T02:24:55.922Z,8.80
2018-12-24T02:27:26.733Z,7.80
2018-12-24T02:29:57.486Z,8.10
2018-12-24T02:32:28.279Z,8.47
2018-12-24T02:34:59.107Z,7.73
2018-12-24T02:37:29.908Z,8.33
2018-12-24T02:40:00.628Z,9.17
2018-12-24T02:42:31.433Z,9.97
2018-12-24T02:45:02.206Z,10.23
2018-12-24T02:47:32.977Z,10.27
2018-12-24T02:50:03.803Z,9.83
2018-12-24T02:52:34.606Z,9.50
2018-12-24T02:55:05.402Z,9.40
2018-12-24T02:57:36.209Z,9.10
2018-12-24T03:00:07.166Z,10.33
2018-12-24T03:02:37.999Z,10.10
2018-12-24T03:05:08.818Z,10.47
2018-12-24T03:07:39.590Z,9.43
2018-12-24T03:10:10.353Z,8.73
2018-12-24T03:12:41.081Z,9.30
2018-12-24T03:15:11.799Z,9.93
2018-12-24T03:17:42.599Z,9.73
2018-12-24T03:20:13.395Z,8.87
2018-12-24T03:22:44.188Z,8.30
2018-12-24T03:25:15.019Z,7.27
2018-12-24T03:27:45.850Z,6.10
2018-12-24T03:30:16.689Z,6.13
2018-12-24T03:32:47.431Z,5.50
2018-12-24T03:35:18.238Z,6.40
2018-12-24T03:37:48.957Z,6.17
2018-12-24T03:40:19.670Z,6.47
2018-12-24T03:42:50.467Z,6.80
2018-12-24T03:45:21.195Z,6.40
2018-12-24T03:47:52.021Z,6.10
2018-12-24T03:50:22.782Z,6.43
2018-12-24T03:52:53.551Z,6.87
2018-12-24T03:55:24.252Z,6.50
2018-12-24T03:57:54.992Z,6.70
2018-12-24T04:00:25.780Z,5.60
2018-12-24T04:02:56.534Z,5.37
2018-12-24T04:05:27.333Z,6.27
2018-12-24T04:07:58.119Z,6.03
2018-12-24T04:10:28.940Z,6.90
2018-12-24T04:12:59.699Z,6.67
2018-12-24T04:15:30.711Z,6.43
2018-12-24T04:18:01.461Z,7.70
2018-12-24T04:20:32.370Z,7.83
2018-12-24T04:23:03.094Z,7.27
2018-12-24T04:25:33.801Z,7.40
2018-12-24T04:28:04.604Z,10.17
2018-12-24T04:30:35.318Z,11.43
2018-12-24T04:33:06.082Z,12.33
2018-12-24T04:35:36.852Z,12.73
2018-12-24T04:38:07.647Z,12.17
2018-12-24T04:40:38.480Z,11.93
2018-12-24T04:43:09.280Z,12.37
2018-12-24T04:45:40.049Z,11.73
2018-12-24T04:48:10.886Z,12.77
2018-12-24T04:50:41.691Z,12.37
2018-12-24T04:53:12.526Z,10.93
2018-12-24T04:55:43.363Z,11.60
2018-12-24T04:58:14.154Z,11.77
2018-12-24T05:00:44.954Z,11.20
2018-12-24T05:03:15.713Z,10.03
2018-12-24T05:05:46.507Z,10.43
2018-12-24T05:08:17.231Z,9.47
2018-12-24T05:10:47.986Z,10.70
2018-12-24T05:13:18.818Z,11.47
2018-12-24T05:15:49.659Z,10.17
2018-12-24T05:18:20.454Z,9.63
2018-12-24T05:20:51.271Z,10.80
2018-12-24T05:23:22.063Z,10.10
2018-12-24T05:25:52.919Z,10.60
2018-12-24T05:28:23.683Z,11.17
2018-12-24T05:30:54.397Z,11.10
2018-12-24T05:33:25.164Z,10.87
2018-12-24T05:35:55.932Z,10.13
2018-12-24T05:38:26.682Z,10.10
2018-12-24T05:40:57.472Z,9.97
2018-12-24T05:43:28.390Z,10.10
2018-12-24T05:45:59.232Z,10.60
2018-12-24T05:48:30.031Z,10.87
2018-12-24T05:51:00.882Z,11.57
2018-12-24T05:53:31.635Z,10.67
2018-12-24T05:56:02.390Z,11.83
2018-12-24T05:58:33.162Z,11.43
2018-12-24T06:01:03.884Z,10.37
2018-12-24T06:03:34.700Z,13.70
2018-12-24T06:06:05.759Z,15.27
2018-12-24T06:08:36.508Z,12.60
2018-12-24T06:11:07.303Z,13.33
2018-12-24T06:13:38.030Z,13.10
2018-12-24T06:16:08.842Z,12.30
2018-12-24T06:18:39.559Z,11.90
2018-12-24T06:21:10.326Z,11.53
2018-12-24T06:23:41.085Z,11.10
2018-12-24T06:26:11.891Z,11.03
2018-12-24T06:28:42.653Z,11.90
2018-12-24T06:31:13.413Z,11.47
2018-12-24T06:33:44.141Z,11.10
2018-12-24T06:36:14.908Z,10.60
2018-12-24T06:38:45.665Z,11.50
2018-12-24T06:41:16.459Z,11.23
2018-12-24T06:43:47.253Z,10.63
2018-12-24T06:46:18.013Z,11.00
2018-12-24T06:48:48.854Z,10.60
2018-12-24T06:51:19.721Z,11.10
2018-12-24T06:53:50.474Z,10.87
2018-12-24T06:56:21.306Z,10.10
2018-12-24T06:58:52.073Z,9.90
2018-12-24T07:01:22.874Z,10.10
2018-12-24T07:03:53.645Z,9.93
2018-12-24T07:06:24.370Z,10.63
2018-12-24T07:08:55.166Z,10.67
2018-12-24T07:11:25.885Z,10.47
2018-12-24T07:13:56.682Z,10.03
2018-12-24T07:16:27.501Z,10.33
2018-12-24T07:18:58.344Z,10.20
2018-12-24T07:21:29.099Z,10.10
2018-12-24T07:23:59.912Z,13.87
2018-12-24T07:26:30.635Z,10.97
2018-12-24T07:29:01.369Z,10.80
2018-12-24T07:31:32.129Z,10.30
2018-12-24T07:34:02.937Z,9.67
2018-12-24T07:36:33.684Z,9.63
2018-12-24T07:39:04.916Z,10.13
2018-12-24T07:41:35.812Z,10.20
2018-12-24T07:44:06.613Z,10.70
2018-12-24T07:46:37.455Z,10.50
2018-12-24T07:49:08.256Z,14.43
2018-12-24T07:51:39.068Z,11.27
2018-12-24T07:54:09.867Z,11.70
2018-12-24T07:56:40.713Z,11.73
2018-12-24T07:59:11.516Z,12.23
2018-12-24T08:01:42.231Z,12.60
2018-12-24T08:04:13.041Z,12.77
2018-12-24T08:06:43.800Z,12.87
2018-12-24T08:09:14.576Z,12.63
2018-12-24T08:11:45.306Z,12.53
2018-12-24T08:14:16.114Z,13.87
2018-12-24T08:16:46.882Z,12.20
2018-12-24T08:19:17.734Z,13.23
2018-12-24T08:21:48.537Z,16.03
2018-12-24T08:24:19.401Z,15.93
2018-12-24T08:26:53.348Z,15.97
2018-12-24T08:29:22.654Z,16.00
2018-12-24T08:31:53.472Z,15.03
2018-12-24T08:34:24.354Z,16.70
2018-12-24T08:36:55.154Z,23.63
2018-12-24T08:39:25.959Z,24.10
2018-12-24T08:41:56.726Z,24.70
2018-12-24T08:44:27.538Z,26.73
2018-12-24T08:46:58.299Z,18.57
2018-12-24T08:49:29.067Z,15.23
2018-12-24T08:51:59.847Z,15.83
2018-12-24T08:54:30.611Z,11.53
2018-12-24T08:57:01.403Z,10.60
2018-12-24T08:59:32.191Z,9.50
2018-12-24T09:02:03.123Z,10.23
2018-12-24T09:04:33.884Z,9.37
2018-12-24T09:07:04.709Z,10.77
2018-12-24T09:09:35.466Z,12.87
2018-12-24T09:12:06.282Z,12.27
2018-12-24T09:14:37.077Z,14.17
2018-12-24T09:17:07.975Z,14.37
2018-12-24T09:19:38.741Z,14.00
2018-12-24T09:22:09.462Z,13.97
2018-12-24T09:24:40.266Z,14.53
2018-12-24T09:27:11.058Z,15.20
2018-12-24T09:29:41.858Z,14.77
2018-12-24T09:32:12.610Z,13.93
2018-12-24T09:34:43.409Z,13.83
2018-12-24T09:37:14.243Z,14.97
2018-12-24T09:39:44.967Z,15.00
2018-12-24T09:42:15.740Z,16.13
2018-12-24T09:44:46.507Z,19.13
2018-12-24T09:47:17.265Z,21.87
2018-12-24T09:49:48.044Z,19.70
2018-12-24T09:52:18.820Z,21.57
2018-12-24T09:54:49.556Z,22.27
2018-12-24T09:57:21.973Z,22.50
2018-12-24T09:59:52.730Z,19.83
2018-12-24T10:02:28.851Z,20.53
2018-12-24T10:04:59.653Z,20.73
2018-12-24T10:07:40.465Z,20.73
2018-12-24T10:10:13.991Z,20.67
2018-12-24T10:12:44.887Z,20.17
2018-12-24T10:15:15.696Z,19.67
2018-12-24T10:17:46.504Z,19.90
2018-12-24T10:20:17.236Z,17.83
2018-12-24T10:22:47.965Z,16.57
2018-12-24T10:25:18.822Z,17.03
2018-12-24T10:27:49.553Z,16.73
2018-12-24T10:30:20.354Z,16.90
2018-12-24T10:32:51.155Z,16.50
2018-12-24T10:35:21.966Z,16.30
2018-12-24T10:37:52.725Z,16.43
2018-12-24T10:40:23.509Z,17.00
2018-12-24T10:42:54.271Z,16.10
2018-12-24T10:45:25.004Z,17.17
2018-12-24T10:47:55.781Z,18.00
2018-12-24T10:50:26.549Z,17.13
2018-12-24T10:52:57.350Z,17.53
2018-12-24T10:55:28.123Z,16.97
2018-12-24T10:57:58.892Z,15.73
2018-12-24T11:00:29.731Z,15.10
2018-12-24T11:03:00.524Z,14.47
2018-12-24T11:05:31.324Z,13.80
2018-12-24T11:08:02.089Z,15.17
2018-12-24T11:10:33.077Z,14.33
2018-12-24T11:13:03.844Z,14.00
2018-12-24T11:15:34.666Z,13.33
2018-12-24T11:18:05.495Z,13.60
2018-12-24T11:20:36.260Z,13.40
2018-12-24T11:23:07.083Z,13.37
2018-12-24T11:25:37.877Z,13.23
2018-12-24T11:28:08.610Z,14.90
2018-12-24T11:30:39.350Z,12.57
2018-12-24T11:33:10.129Z,13.77
2018-12-24T11:35:40.891Z,13.03
2018-12-24T11:38:11.694Z,13.37
2018-12-24T11:40:42.500Z,13.97
2018-12-24T11:43:13.258Z,13.43
2018-12-24T11:45:44.001Z,12.80
2018-12-24T11:48:14.763Z,12.63
2018-12-24T11:50:45.537Z,12.43
2018-12-24T11:53:16.317Z,13.20
2018-12-24T11:55:47.093Z,12.70
2018-12-24T11:58:17.849Z,14.27
2018-12-24T12:00:48.691Z,13.00
2018-12-24T12:03:19.523Z,13.80
2018-12-24T12:05:50.322Z,14.13
2018-12-24T12:08:21.122Z,12.93
2018-12-24T12:10:51.967Z,12.47
2018-12-24T12:13:22.744Z,11.40
2018-12-24T12:15:53.609Z,11.03
2018-12-24T12:18:24.457Z,10.83
2018-12-24T12:20:55.186Z,11.10
2018-12-24T12:23:25.956Z,9.83
2018-12-24T12:25:56.709Z,10.07
2018-12-24T12:28:27.466Z,10.73
2018-12-24T12:30:58.245Z,10.20
2018-12-24T12:33:29.022Z,10.20
2018-12-24T12:35:59.800Z,10.27
2018-12-24T12:38:30.529Z,10.33
2018-12-24T12:41:01.340Z,10.93
2018-12-24T12:43:32.189Z,11.07
2018-12-24T12:46:03.033Z,11.33
2018-12-24T12:48:33.877Z,11.37
2018-12-24T12:51:04.666Z,9.27
2018-12-24T12:53:35.509Z,10.27
2018-12-24T12:56:06.321Z,10.00
2018-12-24T12:58:37.129Z,10.47
2018-12-24T13:01:07.904Z,11.57
2018-12-24T13:03:38.630Z,11.40
2018-12-24T13:06:09.430Z,11.20
2018-12-24T13:08:40.160Z,11.90
2018-12-24T13:11:10.969Z,10.97
2018-12-24T13:13:41.727Z,11.83
2018-12-24T13:16:12.494Z,11.93
2018-12-24T13:18:43.283Z,11.93
2018-12-24T13:21:14.087Z,11.50
2018-12-24T13:23:44.927Z,11.63
2018-12-24T13:26:15.734Z,11.97
2018-12-24T13:28:46.645Z,12.43
2018-12-24T13:31:17.457Z,11.90
2018-12-24T13:33:48.304Z,12.37
2018-12-24T13:36:19.073Z,12.63
2018-12-24T13:38:49.895Z,13.57
2018-12-24T13:41:20.699Z,14.33
2018-12-24T13:43:51.544Z,13.77
2018-12-24T13:46:22.493Z,13.03
2018-12-24T13:48:53.305Z,14.07
2018-12-24T13:51:24.114Z,15.87
2018-12-24T13:53:54.922Z,15.17
2018-12-24T13:56:25.823Z,14.83
2018-12-24T13:58:56.619Z,15.67
2018-12-24T14:01:27.445Z,16.37
2018-12-24T14:03:58.277Z,15.33
2018-12-24T14:06:29.010Z,15.23
2018-12-24T14:08:59.775Z,16.07
2018-12-24T14:11:30.508Z,15.03
2018-12-24T14:14:01.251Z,15.20
2018-12-24T14:16:32.017Z,15.43
2018-12-24T14:19:02.830Z,14.80
2018-12-24T14:21:33.669Z,14.70
2018-12-24T14:24:04.463Z,14.80
2018-12-24T14:26:35.272Z,15.60
2018-12-24T14:29:06.112Z,15.27
2018-12-24T14:31:36.913Z,14.50
2018-12-24T14:34:07.666Z,14.63
2018-12-24T14:37:24.742Z,15.03
2018-12-24T14:39:55.063Z,16.17
2018-12-24T14:42:25.426Z,14.27
2018-12-24T14:44:55.750Z,17.57
2018-12-24T14:47:26.126Z,18.20
2018-12-24T14:49:56.495Z,18.43
2018-12-24T14:52:26.902Z,17.73
2018-12-24T14:54:57.333Z,17.30
2018-12-24T14:57:27.675Z,14.33
2018-12-24T14:59:57.970Z,14.63
2018-12-24T15:02:28.341Z,14.70
2018-12-24T15:04:58.646Z,13.80
2018-12-24T15:07:28.955Z,13.17
2018-12-24T15:09:59.325Z,12.53
2018-12-24T15:12:29.911Z,13.23
2018-12-24T15:15:00.301Z,14.07
2018-12-24T15:17:30.635Z,15.13
2018-12-24T15:20:01.034Z,13.47
2018-12-24T15:22:31.409Z,14.07
2018-12-24T15:25:01.821Z,12.70
2018-12-24T15:27:32.152Z,13.50
2018-12-24T15:30:02.573Z,13.60
2018-12-24T15:32:32.925Z,13.20
2018-12-24T15:35:03.256Z,13.73
2018-12-24T15:37:33.639Z,13.60
2018-12-24T15:40:04.162Z,13.00
2018-12-24T15:42:34.571Z,13.37
2018-12-24T15:45:05.044Z,14.83
2018-12-24T15:47:36.373Z,15.33
2018-12-24T15:50:06.803Z,16.93
2018-12-24T15:52:37.137Z,16.10
2018-12-24T15:55:07.487Z,15.53
2018-12-24T15:57:37.787Z,14.83
2018-12-24T16:00:09.287Z,14.93
2018-12-24T16:02:39.652Z,14.87
2018-12-24T16:05:09.977Z,15.23
2018-12-24T16:07:40.356Z,18.07
2018-12-24T16:10:10.690Z,20.20
2018-12-24T16:12:40.995Z,17.43
2018-12-24T16:15:11.846Z,16.63
2018-12-24T16:17:42.293Z,16.40
2018-12-24T16:20:12.669Z,18.43
2018-12-24T16:22:43.040Z,17.03
2018-12-24T16:25:13.460Z,17.77
2018-12-24T16:27:43.876Z,17.83
2018-12-24T16:30:14.212Z,16.63
2018-12-24T16:32:44.589Z,17.07
2018-12-24T16:35:14.894Z,16.73
2018-12-24T16:37:45.444Z,18.80
2018-12-24T16:40:15.786Z,18.80
2018-12-24T16:42:46.078Z,22.60
2018-12-24T16:45:16.490Z,22.33
2018-12-24T16:47:46.857Z,20.23
2018-12-24T16:50:17.481Z,19.43
2018-12-24T16:52:47.943Z,19.97
2018-12-24T16:55:18.324Z,21.03
2018-12-24T16:57:48.703Z,20.57
2018-12-24T17:00:19.006Z,22.00
2018-12-24T17:02:49.337Z,34.93
2018-12-24T17:05:19.667Z,34.67
2018-12-24T17:07:50.002Z,35.40
2018-12-24T17:10:20.382Z,50.50
2018-12-24T17:12:50.738Z,45.10
2018-12-24T17:15:21.271Z,37.43
2018-12-24T17:17:51.702Z,38.83
2018-12-24T17:20:22.058Z,37.50
2018-12-24T17:22:52.389Z,37.17
2018-12-24T17:25:23.805Z,31.73
2018-12-24T17:27:54.182Z,30.83
2018-12-24T17:30:24.598Z,26.23
2018-12-24T17:32:55.047Z,27.70
2018-12-24T17:35:25.680Z,30.43
2018-12-24T17:37:56.055Z,34.10
2018-12-24T17:40:26.391Z,32.97
2018-12-24T17:42:56.724Z,31.13
2018-12-24T17:45:27.255Z,30.13
2018-12-24T17:47:57.626Z,28.90
2018-12-24T17:50:27.987Z,26.53
2018-12-24T17:52:58.415Z,27.03
2018-12-24T17:55:28.793Z,25.23
2018-12-24T17:57:59.089Z,21.87
2018-12-24T18:00:29.467Z,18.93
2018-12-24T18:02:59.797Z,16.23
2018-12-24T18:05:30.130Z,13.87
2018-12-24T18:08:00.470Z,11.63
2018-12-24T18:10:30.799Z,9.03
2018-12-24T18:13:01.077Z,7.87
2018-12-24T18:15:31.440Z,7.23
2018-12-24T18:18:01.767Z,6.47
2018-12-24T18:20:32.166Z,5.97
2018-12-24T18:23:02.516Z,5.27
2018-12-24T18:25:32.877Z,4.63
2018-12-24T18:28:03.274Z,4.70
2018-12-24T18:30:34.284Z,3.70
2018-12-24T18:33:04.639Z,3.20
2018-12-24T18:35:34.913Z,3.10
2018-12-24T18:38:05.756Z,2.70
2018-12-24T18:40:36.502Z,2.50
2018-12-24T18:43:08.111Z,1.93
2018-12-24T18:45:38.778Z,2.50
2018-12-24T18:48:09.191Z,1.97
2018-12-24T18:50:39.511Z,2.40
2018-12-24T18:53:09.805Z,2.20
2018-12-24T18:55:40.159Z,2.17
2018-12-24T18:58:10.480Z,1.80
2018-12-24T19:00:40.879Z,2.00
2018-12-24T19:03:11.250Z,2.10
2018-12-24T19:05:41.616Z,1.53
2018-12-24T19:08:11.970Z,1.37
2018-12-24T19:10:42.419Z,1.30
2018-12-24T19:13:12.871Z,1.20
2018-12-24T19:15:43.149Z,1.43
2018-12-24T19:18:13.511Z,1.40
2018-12-24T19:20:43.836Z,1.30
2018-12-24T19:23:14.130Z,1.17
2018-12-24T19:25:44.559Z,1.50
2018-12-24T19:28:14.880Z,1.20
2018-12-24T19:30:45.165Z,1.33
2018-12-24T19:33:15.529Z,2.30
2018-12-24T19:35:45.967Z,1.80
2018-12-24T19:38:16.366Z,2.33
2018-12-24T19:40:46.719Z,2.20
2018-12-24T19:43:17.141Z,2.20
2018-12-24T19:45:47.548Z,2.50
2018-12-24T19:48:18.007Z,2.70
2018-12-24T19:50:48.633Z,2.83
2018-12-24T19:53:19.023Z,2.63
2018-12-24T19:55:49.496Z,2.60
2018-12-24T20:01:54.471Z,2.70
2018-12-24T20:04:24.856Z,2.53
2018-12-24T20:06:55.212Z,2.00
2018-12-24T20:09:25.590Z,2.00
2018-12-24T20:11:55.915Z,2.07
2018-12-24T20:14:26.260Z,2.50
2018-12-24T20:16:56.546Z,2.47
2018-12-24T20:19:26.862Z,2.00
2018-12-24T20:21:57.187Z,1.93
2018-12-24T20:24:27.509Z,2.07
2018-12-24T20:26:57.891Z,1.80
2018-12-24T20:29:28.239Z,1.60
2018-12-24T20:31:58.636Z,2.00
2018-12-24T20:34:29.052Z,1.37
2018-12-24T20:36:59.378Z,1.60
2018-12-24T20:39:29.745Z,1.30
2018-12-24T20:42:00.106Z,1.70
2018-12-24T20:44:30.608Z,1.60
2018-12-24T20:47:00.995Z,1.20
2018-12-24T20:49:31.357Z,1.27
2018-12-24T20:52:01.680Z,1.30
2018-12-24T20:54:32.053Z,0.93
2018-12-24T20:57:02.491Z,1.00
2018-12-24T20:59:32.880Z,1.10
2018-12-24T21:02:03.282Z,1.00
2018-12-24T21:04:33.647Z,1.20
2018-12-24T21:07:04.037Z,1.20
2018-12-24T21:09:34.378Z,1.17
2018-12-24T21:12:04.752Z,1.40
2018-12-24T21:14:35.073Z,1.40
2018-12-24T21:17:05.458Z,1.40
2018-12-24T21:19:35.742Z,1.60
2018-12-24T21:22:06.113Z,1.57
2018-12-24T21:24:36.465Z,1.63
2018-12-24T21:27:06.863Z,1.60
2018-12-24T21:29:37.471Z,1.77
2018-12-24T21:32:07.841Z,2.77
2018-12-24T21:34:38.253Z,3.90
2018-12-24T21:37:08.831Z,4.77
2018-12-24T21:39:39.248Z,4.60
2018-12-24T21:42:09.648Z,5.57
2018-12-24T21:44:39.975Z,5.37
2018-12-24T21:47:10.331Z,4.80
2018-12-24T21:49:40.631Z,5.03
2018-12-24T21:52:11.043Z,4.30
2018-12-24T21:54:41.412Z,4.00
2018-12-24T21:57:11.739Z,3.63
2018-12-24T21:59:42.349Z,2.90
2018-12-24T22:02:12.732Z,2.77
2018-12-24T22:04:43.027Z,2.30
2018-12-24T22:07:13.350Z,1.73
2018-12-24T22:09:43.675Z,1.77
2018-12-24T22:12:14.001Z,1.67
2018-12-24T22:14:44.361Z,1.50
2018-12-24T22:17:14.725Z,1.30
2018-12-24T22:19:45.131Z,1.10
2018-12-24T22:22:15.504Z,1.00
2018-12-24T22:24:45.828Z,1.20
2018-12-24T22:27:16.108Z,1.10
2018-12-24T22:29:46.472Z,0.60
2018-12-24T22:32:16.851Z,0.90
2018-12-24T22:34:47.218Z,1.20
2018-12-24T22:37:17.695Z,0.83
2018-12-24T22:39:48.137Z,1.00
2018-12-24T22:42:18.493Z,1.00
2018-12-24T22:44:49.046Z,0.90
2018-12-24T22:47:20.641Z,1.00
2018-12-24T22:49:50.962Z,1.10
2018-12-24T22:52:21.357Z,0.90
2018-12-24T22:54:51.693Z,1.00
2018-12-24T22:57:22.000Z,1.40
2018-12-24T22:59:52.345Z,1.60
2018-12-24T23:02:22.769Z,1.60
2018-12-24T23:04:53.196Z,1.60
2018-12-24T23:07:23.560Z,1.80
2018-12-24T23:09:53.922Z,1.70
2018-12-24T23:12:24.227Z,1.73
2018-12-24T23:14:54.558Z,1.70
2018-12-24T23:17:24.903Z,1.40
2018-12-24T23:19:55.312Z,1.33
2018-12-24T23:22:26.027Z,1.23
2018-12-24T23:24:56.424Z,1.20
2018-12-24T23:27:26.788Z,1.40
2018-12-24T23:29:57.189Z,1.30
2018-12-24T23:32:27.550Z,1.20
2018-12-24T23:34:57.916Z,1.40
2018-12-24T23:37:28.278Z,1.10
2018-12-24T23:39:58.650Z,1.37
2018-12-24T23:42:29.031Z,1.43
2018-12-24T23:44:59.413Z,1.40
2018-12-24T23:47:29.934Z,1.20
2018-12-24T23:50:00.285Z,1.20
2018-12-24T23:52:30.777Z,1.70
2018-12-24T23:55:02.049Z,1.70
2018-12-24T23:57:32.568Z,1.70
